Airfield :
LOGIN :

Register | Disclaimer

   EN    FR    IT 

 










Legend :    VFR   Marginal VFR   IFR   Intensive IFR   Very Intensive IFR
Visi :
Ceiling :
>= 8 km
>= 3000ft
5 to 8 km
1000 to 3000 ft
1500m to 5 km
500 to 1000 ft
800 to 1500m
200 to 500 ft
< 800m
< 200 ft
Symbols :   Thunderstorms  Fog  Heavy snow  Heavy precipitations  Wind > 20 kt
SIGMETs :     Misc.  Thunderstorms  Icing  Turbulence  Mountain Waves  Volcanic Ashes






- Airport Elevation : 604 ft
- IATA code : LCJ


EPLL - Lodz

CURRENT METAR :
  • 090730Z 23007KT 200V260 CAVOK 14/M03 Q1020

EXPIRED METARs :
  • 090700Z 22005KT 190V260 CAVOK 13/M02 Q1020
  • 090630Z 23005KT 190V260 CAVOK 10/M02 Q1020
  • 090600Z VRB02KT CAVOK 09/M02 Q1020
  • 090530Z VRB02KT CAVOK 07/M02 Q1020
  • 090500Z VRB01KT 9000 NSC 05/M02 Q1020

TAF TAF EPLL
Valid from the 09 at 06:00 until the 10 at 06:00 UTC


090530Z 0906/1006 VRB02KT CAVOK
BECMG 0907/0909 27010KT
TEMPO 0909/0917 29015G28KT
PROB40
TEMPO 0912/0917 -SHRA BKN040CB
BECMG 0917/0920 34010KT
BECMG 1000/1003 28003KT



MET'MAP, your aeronautical weather chart ! - Copyright ORBIFLY December 2007 - Disclaimer

ORBIFLY MET'MAP TEAM :

Programming & Development : Alexandra Zaïnal
Concept & original design : Baudouin d'Aumeries
Assistance for programming : Marc-Olivier Méhu
Technical & hardware support : Manuel Goepfert

Contact : metmap@orbifly.com




SOURCES & CREDITS :

   NOAA